sensor_id;sensor_type;location;lat;lon;timestamp;temperature;humidity
12847;DHT22;6492;48.128;8.320;2022-11-04T00:02:19;6.70;61.10
12847;DHT22;6492;48.128;8.320;2022-11-04T00:06:22;6.70;60.30
12847;DHT22;6492;48.128;8.320;2022-11-04T00:10:24;6.70;61.00
12847;DHT22;6492;48.128;8.320;2022-11-04T00:14:46;6.70;62.20
12847;DHT22;6492;48.128;8.320;2022-11-04T00:18:49;6.70;63.20
12847;DHT22;6492;48.128;8.320;2022-11-04T00:22:51;6.60;64.10
12847;DHT22;6492;48.128;8.320;2022-11-04T00:27:12;6.60;64.40
12847;DHT22;6492;48.128;8.320;2022-11-04T00:31:31;6.60;65.10
12847;DHT22;6492;48.128;8.320;2022-11-04T00:35:51;6.60;66.20
12847;DHT22;6492;48.128;8.320;2022-11-04T00:40:26;6.50;67.10
12847;DHT22;6492;48.128;8.320;2022-11-04T00:44:27;6.50;67.40
12847;DHT22;6492;48.128;8.320;2022-11-04T00:48:29;6.40;67.80
12847;DHT22;6492;48.128;8.320;2022-11-04T00:52:31;6.40;68.10
12847;DHT22;6492;48.128;8.320;2022-11-04T00:56:36;6.40;68.40
12847;DHT22;6492;48.128;8.320;2022-11-04T01:00:38;6.40;68.90
12847;DHT22;6492;48.128;8.320;2022-11-04T01:04:40;6.40;69.10
12847;DHT22;6492;48.128;8.320;2022-11-04T01:08:42;6.40;69.40
12847;DHT22;6492;48.128;8.320;2022-11-04T01:12:45;6.50;69.70
12847;DHT22;6492;48.128;8.320;2022-11-04T01:16:48;6.40;69.40
12847;DHT22;6492;48.128;8.320;2022-11-04T01:20:50;6.30;68.70
12847;DHT22;6492;48.128;8.320;2022-11-04T01:24:52;6.30;68.90
12847;DHT22;6492;48.128;8.320;2022-11-04T01:28:56;6.30;69.10
12847;DHT22;6492;48.128;8.320;2022-11-04T01:32:59;6.30;69.00
12847;DHT22;6492;48.128;8.320;2022-11-04T01:37:01;6.20;68.70
12847;DHT22;6492;48.128;8.320;2022-11-04T01:41:03;6.20;68.60
12847;DHT22;6492;48.128;8.320;2022-11-04T01:45:12;6.10;68.70
12847;DHT22;6492;48.128;8.320;2022-11-04T01:49:22;6.10;68.20
12847;DHT22;6492;48.128;8.320;2022-11-04T01:53:27;6.10;67.90
12847;DHT22;6492;48.128;8.320;2022-11-04T01:57:33;6.10;66.10
12847;DHT22;6492;48.128;8.320;2022-11-04T02:01:37;6.00;65.80
12847;DHT22;6492;48.128;8.320;2022-11-04T02:05:39;6.00;66.20
12847;DHT22;6492;48.128;8.320;2022-11-04T02:09:43;5.90;66.50
12847;DHT22;6492;48.128;8.320;2022-11-04T02:13:45;5.90;66.30
12847;DHT22;6492;48.128;8.320;2022-11-04T02:18:01;5.80;66.70
12847;DHT22;6492;48.128;8.320;2022-11-04T02:22:23;5.70;66.20
12847;DHT22;6492;48.128;8.320;2022-11-04T02:26:58;5.70;66.00
12847;DHT22;6492;48.128;8.320;2022-11-04T02:31:11;5.60;65.40
12847;DHT22;6492;48.128;8.320;2022-11-04T02:35:22;5.50;65.60
12847;DHT22;6492;48.128;8.320;2022-11-04T02:39:33;5.40;65.60
12847;DHT22;6492;48.128;8.320;2022-11-04T02:43:46;5.40;65.70
12847;DHT22;6492;48.128;8.320;2022-11-04T02:47:54;5.30;65.40
12847;DHT22;6492;48.128;8.320;2022-11-04T02:52:03;5.20;64.00
12847;DHT22;6492;48.128;8.320;2022-11-04T02:56:07;5.10;63.30
12847;DHT22;6492;48.128;8.320;2022-11-04T03:00:12;5.00;63.20
12847;DHT22;6492;48.128;8.320;2022-11-04T03:04:20;4.90;63.90
12847;DHT22;6492;48.128;8.320;2022-11-04T03:08:27;4.90;63.10
12847;DHT22;6492;48.128;8.320;2022-11-04T03:12:37;4.90;62.50
12847;DHT22;6492;48.128;8.320;2022-11-04T03:16:44;4.90;62.50
12847;DHT22;6492;48.128;8.320;2022-11-04T03:20:49;4.80;62.40
12847;DHT22;6492;48.128;8.320;2022-11-04T03:24:52;4.80;62.30
12847;DHT22;6492;48.128;8.320;2022-11-04T03:29:03;4.80;62.50
12847;DHT22;6492;48.128;8.320;2022-11-04T03:33:17;4.80;61.50
12847;DHT22;6492;48.128;8.320;2022-11-04T03:37:22;4.70;61.40
12847;DHT22;6492;48.128;8.320;2022-11-04T03:41:30;4.80;61.90
12847;DHT22;6492;48.128;8.320;2022-11-04T03:45:34;4.70;62.40
12847;DHT22;6492;48.128;8.320;2022-11-04T03:49:37;4.80;62.90
12847;DHT22;6492;48.128;8.320;2022-11-04T03:53:40;4.80;63.50
12847;DHT22;6492;48.128;8.320;2022-11-04T03:57:48;4.80;63.20
12847;DHT22;6492;48.128;8.320;2022-11-04T04:01:54;4.80;62.10
12847;DHT22;6492;48.128;8.320;2022-11-04T04:06:01;4.80;61.90
12847;DHT22;6492;48.128;8.320;2022-11-04T04:10:13;4.70;61.80
12847;DHT22;6492;48.128;8.320;2022-11-04T04:14:47;4.70;61.00
12847;DHT22;6492;48.128;8.320;2022-11-04T04:18:53;4.60;60.30
12847;DHT22;6492;48.128;8.320;2022-11-04T04:22:59;4.50;60.40
12847;DHT22;6492;48.128;8.320;2022-11-04T04:27:03;4.40;61.00
12847;DHT22;6492;48.128;8.320;2022-11-04T04:31:22;4.40;61.20
12847;DHT22;6492;48.128;8.320;2022-11-04T04:35:45;4.30;61.30
12847;DHT22;6492;48.128;8.320;2022-11-04T04:39:52;4.20;62.90
12847;DHT22;6492;48.128;8.320;2022-11-04T04:44:15;4.10;62.10
12847;DHT22;6492;48.128;8.320;2022-11-04T04:48:36;4.10;63.10
12847;DHT22;6492;48.128;8.320;2022-11-04T04:52:40;4.10;63.30
12847;DHT22;6492;48.128;8.320;2022-11-04T04:56:42;4.10;63.50
12847;DHT22;6492;48.128;8.320;2022-11-04T05:00:45;4.10;62.80
12847;DHT22;6492;48.128;8.320;2022-11-04T05:04:47;4.10;62.40
12847;DHT22;6492;48.128;8.320;2022-11-04T05:08:49;4.10;61.60
12847;DHT22;6492;48.128;8.320;2022-11-04T05:12:51;4.10;60.20
12847;DHT22;6492;48.128;8.320;2022-11-04T05:17:11;4.10;60.20
12847;DHT22;6492;48.128;8.320;2022-11-04T05:21:14;4.10;60.60
12847;DHT22;6492;48.128;8.320;2022-11-04T05:25:17;4.10;60.10
12847;DHT22;6492;48.128;8.320;2022-11-04T05:29:19;4.10;59.20
12847;DHT22;6492;48.128;8.320;2022-11-04T05:33:22;4.20;59.10
12847;DHT22;6492;48.128;8.320;2022-11-04T05:37:24;4.10;59.50
12847;DHT22;6492;48.128;8.320;2022-11-04T05:41:26;4.10;61.00
12847;DHT22;6492;48.128;8.320;2022-11-04T05:45:28;4.10;61.80
12847;DHT22;6492;48.128;8.320;2022-11-04T05:49:32;4.10;61.90
12847;DHT22;6492;48.128;8.320;2022-11-04T05:53:34;4.10;61.70
12847;DHT22;6492;48.128;8.320;2022-11-04T05:57:35;4.00;61.60
12847;DHT22;6492;48.128;8.320;2022-11-04T06:01:39;3.90;61.70
12847;DHT22;6492;48.128;8.320;2022-11-04T06:05:43;3.80;61.90
12847;DHT22;6492;48.128;8.320;2022-11-04T06:09:45;3.80;62.70
12847;DHT22;6492;48.128;8.320;2022-11-04T06:13:47;3.70;63.60
12847;DHT22;6492;48.128;8.320;2022-11-04T06:17:49;3.70;64.80
12847;DHT22;6492;48.128;8.320;2022-11-04T06:21:52;3.80;65.40
12847;DHT22;6492;48.128;8.320;2022-11-04T06:25:55;3.80;65.20
12847;DHT22;6492;48.128;8.320;2022-11-04T06:29:57;3.70;65.10
12847;DHT22;6492;48.128;8.320;2022-11-04T06:33:59;3.70;65.10
12847;DHT22;6492;48.128;8.320;2022-11-04T06:38:02;3.60;65.00
12847;DHT22;6492;48.128;8.320;2022-11-04T06:42:04;3.60;65.30
12847;DHT22;6492;48.128;8.320;2022-11-04T06:46:23;3.50;65.80
12847;DHT22;6492;48.128;8.320;2022-11-04T06:50:25;3.50;66.20
12847;DHT22;6492;48.128;8.320;2022-11-04T06:54:28;3.50;67.20
12847;DHT22;6492;48.128;8.320;2022-11-04T06:58:30;3.60;68.20
12847;DHT22;6492;48.128;8.320;2022-11-04T07:02:32;3.70;68.30
12847;DHT22;6492;48.128;8.320;2022-11-04T07:06:35;3.70;68.30
12847;DHT22;6492;48.128;8.320;2022-11-04T07:10:39;3.80;68.40
12847;DHT22;6492;48.128;8.320;2022-11-04T07:14:41;3.80;68.20
12847;DHT22;6492;48.128;8.320;2022-11-04T07:18:43;3.80;68.20
12847;DHT22;6492;48.128;8.320;2022-11-04T07:22:59;3.90;68.50
12847;DHT22;6492;48.128;8.320;2022-11-04T07:27:02;4.10;67.90
12847;DHT22;6492;48.128;8.320;2022-11-04T07:31:12;4.20;67.00
12847;DHT22;6492;48.128;8.320;2022-11-04T07:35:14;4.30;66.70
12847;DHT22;6492;48.128;8.320;2022-11-04T07:39:16;4.50;66.50
12847;DHT22;6492;48.128;8.320;2022-11-04T07:43:36;4.60;66.30
12847;DHT22;6492;48.128;8.320;2022-11-04T07:47:38;4.80;66.10
12847;DHT22;6492;48.128;8.320;2022-11-04T07:51:40;5.00;65.80
12847;DHT22;6492;48.128;8.320;2022-11-04T07:55:42;5.10;65.60
12847;DHT22;6492;48.128;8.320;2022-11-04T08:00:06;5.30;65.40
12847;DHT22;6492;48.128;8.320;2022-11-04T08:04:09;5.60;64.30
12847;DHT22;6492;48.128;8.320;2022-11-04T08:08:11;5.60;60.10
12847;DHT22;6492;48.128;8.320;2022-11-04T08:12:12;5.70;58.60
12847;DHT22;6492;48.128;8.320;2022-11-04T08:16:18;5.90;59.00
12847;DHT22;6492;48.128;8.320;2022-11-04T08:20:27;6.10;58.50
12847;DHT22;6492;48.128;8.320;2022-11-04T08:24:29;6.30;55.70
12847;DHT22;6492;48.128;8.320;2022-11-04T08:28:37;6.50;55.30
12847;DHT22;6492;48.128;8.320;2022-11-04T08:32:41;6.70;53.20
12847;DHT22;6492;48.128;8.320;2022-11-04T08:36:45;6.80;52.20
12847;DHT22;6492;48.128;8.320;2022-11-04T08:40:48;6.90;50.30
12847;DHT22;6492;48.128;8.320;2022-11-04T08:44:50;7.00;49.40
12847;DHT22;6492;48.128;8.320;2022-11-04T08:48:53;7.20;47.70
12847;DHT22;6492;48.128;8.320;2022-11-04T08:52:55;7.30;46.60
12847;DHT22;6492;48.128;8.320;2022-11-04T08:56:59;7.40;44.60
12847;DHT22;6492;48.128;8.320;2022-11-04T09:01:03;7.50;43.70
12847;DHT22;6492;48.128;8.320;2022-11-04T09:05:07;7.40;42.20
12847;DHT22;6492;48.128;8.320;2022-11-04T09:09:11;7.40;42.70
12847;DHT22;6492;48.128;8.320;2022-11-04T09:13:14;7.40;43.10
12847;DHT22;6492;48.128;8.320;2022-11-04T09:17:18;7.40;42.70
12847;DHT22;6492;48.128;8.320;2022-11-04T09:21:22;7.40;43.00
12847;DHT22;6492;48.128;8.320;2022-11-04T09:25:23;7.50;42.80
12847;DHT22;6492;48.128;8.320;2022-11-04T09:29:25;7.90;43.70
12847;DHT22;6492;48.128;8.320;2022-11-04T09:33:29;8.30;40.10
12847;DHT22;6492;48.128;8.320;2022-11-04T09:37:35;8.40;37.40
12847;DHT22;6492;48.128;8.320;2022-11-04T09:41:54;8.30;36.00
12847;DHT22;6492;48.128;8.320;2022-11-04T09:45:57;8.40;38.00
12847;DHT22;6492;48.128;8.320;2022-11-04T09:50:13;8.40;38.80
12847;DHT22;6492;48.128;8.320;2022-11-04T09:54:21;8.30;37.40
12847;DHT22;6492;48.128;8.320;2022-11-04T09:58:23;8.50;39.00
12847;DHT22;6492;48.128;8.320;2022-11-04T10:02:34;8.80;37.00
12847;DHT22;6492;48.128;8.320;2022-11-04T10:06:51;9.00;36.30
12847;DHT22;6492;48.128;8.320;2022-11-04T10:11:01;9.00;34.10
12847;DHT22;6492;48.128;8.320;2022-11-04T10:15:42;8.90;31.40
12847;DHT22;6492;48.128;8.320;2022-11-04T10:19:58;8.80;32.30
12847;DHT22;6492;48.128;8.320;2022-11-04T10:24:16;8.60;34.10
12847;DHT22;6492;48.128;8.320;2022-11-04T10:28:30;8.80;36.50
12847;DHT22;6492;48.128;8.320;2022-11-04T10:32:39;9.10;34.10
12847;DHT22;6492;48.128;8.320;2022-11-04T10:36:46;9.20;34.20
12847;DHT22;6492;48.128;8.320;2022-11-04T10:40:50;9.30;34.40
12847;DHT22;6492;48.128;8.320;2022-11-04T10:44:54;9.20;34.60
12847;DHT22;6492;48.128;8.320;2022-11-04T10:49:10;9.20;33.70
12847;DHT22;6492;48.128;8.320;2022-11-04T10:53:16;9.10;30.90
12847;DHT22;6492;48.128;8.320;2022-11-04T10:57:20;8.90;31.10
12847;DHT22;6492;48.128;8.320;2022-11-04T11:01:33;8.80;32.70
12847;DHT22;6492;48.128;8.320;2022-11-04T11:05:43;8.70;32.30
12847;DHT22;6492;48.128;8.320;2022-11-04T11:09:49;8.50;33.40
12847;DHT22;6492;48.128;8.320;2022-11-04T11:13:52;8.60;35.50
12847;DHT22;6492;48.128;8.320;2022-11-04T11:18:00;8.80;34.90
12847;DHT22;6492;48.128;8.320;2022-11-04T11:22:03;8.90;33.30
12847;DHT22;6492;48.128;8.320;2022-11-04T11:26:06;9.10;32.80
12847;DHT22;6492;48.128;8.320;2022-11-04T11:30:18;9.30;33.00
12847;DHT22;6492;48.128;8.320;2022-11-04T11:34:58;9.50;31.80
12847;DHT22;6492;48.128;8.320;2022-11-04T11:39:04;9.60;30.00
12847;DHT22;6492;48.128;8.320;2022-11-04T11:43:21;9.70;29.10
12847;DHT22;6492;48.128;8.320;2022-11-04T11:47:34;9.70;27.20
12847;DHT22;6492;48.128;8.320;2022-11-04T11:51:55;9.30;26.70
12847;DHT22;6492;48.128;8.320;2022-11-04T11:56:05;9.10;27.70
12847;DHT22;6492;48.128;8.320;2022-11-04T12:00:12;8.90;28.00
12847;DHT22;6492;48.128;8.320;2022-11-04T12:04:18;8.80;29.00
12847;DHT22;6492;48.128;8.320;2022-11-04T12:08:48;8.70;29.60
12847;DHT22;6492;48.128;8.320;2022-11-04T12:13:02;8.80;30.40
12847;DHT22;6492;48.128;8.320;2022-11-04T12:17:14;9.00;30.70
12847;DHT22;6492;48.128;8.320;2022-11-04T12:21:23;9.40;30.20
12847;DHT22;6492;48.128;8.320;2022-11-04T12:25:39;9.60;27.50
12847;DHT22;6492;48.128;8.320;2022-11-04T12:34:36;9.70;26.50
12847;DHT22;6492;48.128;8.320;2022-11-04T12:39:05;9.70;24.70
12847;DHT22;6492;48.128;8.320;2022-11-04T12:43:30;9.70;25.10
12847;DHT22;6492;48.128;8.320;2022-11-04T12:47:41;9.60;24.90
12847;DHT22;6492;48.128;8.320;2022-11-04T12:51:49;9.40;25.50
12847;DHT22;6492;48.128;8.320;2022-11-04T12:56:01;9.20;25.20
12847;DHT22;6492;48.128;8.320;2022-11-04T13:00:11;9.10;26.00
12847;DHT22;6492;48.128;8.320;2022-11-04T13:04:17;9.30;27.50
12847;DHT22;6492;48.128;8.320;2022-11-04T13:08:24;9.40;25.90
12847;DHT22;6492;48.128;8.320;2022-11-04T13:12:30;9.40;25.40
12847;DHT22;6492;48.128;8.320;2022-11-04T13:16:37;9.30;25.80
12847;DHT22;6492;48.128;8.320;2022-11-04T13:20:43;9.30;25.70
12847;DHT22;6492;48.128;8.320;2022-11-04T13:24:49;9.10;24.80
12847;DHT22;6492;48.128;8.320;2022-11-04T13:28:56;8.90;26.10
12847;DHT22;6492;48.128;8.320;2022-11-04T13:33:10;8.70;26.70
12847;DHT22;6492;48.128;8.320;2022-11-04T13:37:26;8.60;28.10
12847;DHT22;6492;48.128;8.320;2022-11-04T13:41:49;8.50;28.10
12847;DHT22;6492;48.128;8.320;2022-11-04T13:46:28;8.30;28.30
12847;DHT22;6492;48.128;8.320;2022-11-04T13:50:34;8.20;28.30
12847;DHT22;6492;48.128;8.320;2022-11-04T13:54:40;8.10;28.00
12847;DHT22;6492;48.128;8.320;2022-11-04T13:58:50;8.10;28.70
12847;DHT22;6492;48.128;8.320;2022-11-04T14:02:55;8.00;28.50
12847;DHT22;6492;48.128;8.320;2022-11-04T14:07:00;7.90;28.70
12847;DHT22;6492;48.128;8.320;2022-11-04T14:11:09;7.90;29.40
12847;DHT22;6492;48.128;8.320;2022-11-04T14:15:15;8.30;29.80
12847;DHT22;6492;48.128;8.320;2022-11-04T14:19:46;8.70;28.00
12847;DHT22;6492;48.128;8.320;2022-11-04T14:23:51;9.20;25.30
12847;DHT22;6492;48.128;8.320;2022-11-04T14:27:56;9.60;23.70
12847;DHT22;6492;48.128;8.320;2022-11-04T14:31:59;9.90;20.40
12847;DHT22;6492;48.128;8.320;2022-11-04T14:36:32;9.90;20.80
12847;DHT22;6492;48.128;8.320;2022-11-04T14:40:48;10.00;21.30
12847;DHT22;6492;48.128;8.320;2022-11-04T14:44:50;9.90;21.90
12847;DHT22;6492;48.128;8.320;2022-11-04T14:48:53;9.70;22.30
12847;DHT22;6492;48.128;8.320;2022-11-04T14:52:57;9.40;21.70
12847;DHT22;6492;48.128;8.320;2022-11-04T14:57:21;9.10;22.80
12847;DHT22;6492;48.128;8.320;2022-11-04T15:01:24;8.90;24.20
12847;DHT22;6492;48.128;8.320;2022-11-04T15:05:27;8.70;24.80
12847;DHT22;6492;48.128;8.320;2022-11-04T15:09:32;8.50;25.40
12847;DHT22;6492;48.128;8.320;2022-11-04T15:13:37;8.40;26.10
12847;DHT22;6492;48.128;8.320;2022-11-04T15:17:39;8.20;26.60
12847;DHT22;6492;48.128;8.320;2022-11-04T15:21:48;8.00;26.80
12847;DHT22;6492;48.128;8.320;2022-11-04T15:25:50;7.80;27.80
12847;DHT22;6492;48.128;8.320;2022-11-04T15:29:54;7.60;28.40
12847;DHT22;6492;48.128;8.320;2022-11-04T15:33:58;7.40;29.20
12847;DHT22;6492;48.128;8.320;2022-11-04T15:38:01;7.30;30.00
12847;DHT22;6492;48.128;8.320;2022-11-04T15:42:07;7.20;30.70
12847;DHT22;6492;48.128;8.320;2022-11-04T15:46:30;7.00;32.60
12847;DHT22;6492;48.128;8.320;2022-11-04T15:50:32;7.00;33.40
12847;DHT22;6492;48.128;8.320;2022-11-04T15:54:35;6.90;34.90
12847;DHT22;6492;48.128;8.320;2022-11-04T15:59:00;6.80;35.20
12847;DHT22;6492;48.128;8.320;2022-11-04T16:03:03;6.70;35.10
12847;DHT22;6492;48.128;8.320;2022-11-04T16:07:21;6.60;36.10
12847;DHT22;6492;48.128;8.320;2022-11-04T16:11:23;6.50;36.70
12847;DHT22;6492;48.128;8.320;2022-11-04T16:15:34;6.40;36.90
12847;DHT22;6492;48.128;8.320;2022-11-04T16:19:37;6.40;37.20
12847;DHT22;6492;48.128;8.320;2022-11-04T16:23:43;6.30;38.10
12847;DHT22;6492;48.128;8.320;2022-11-04T16:27:46;6.20;39.30
12847;DHT22;6492;48.128;8.320;2022-11-04T16:32:04;6.20;40.70
12847;DHT22;6492;48.128;8.320;2022-11-04T16:36:26;6.10;42.90
12847;DHT22;6492;48.128;8.320;2022-11-04T16:40:28;6.00;44.20
12847;DHT22;6492;48.128;8.320;2022-11-04T16:44:31;6.00;44.70
12847;DHT22;6492;48.128;8.320;2022-11-04T16:48:33;5.90;45.10
12847;DHT22;6492;48.128;8.320;2022-11-04T16:52:36;5.90;44.90
12847;DHT22;6492;48.128;8.320;2022-11-04T16:56:48;5.80;45.00
12847;DHT22;6492;48.128;8.320;2022-11-04T17:00:50;5.90;45.10
12847;DHT22;6492;48.128;8.320;2022-11-04T17:04:55;5.80;45.10
12847;DHT22;6492;48.128;8.320;2022-11-04T17:08:59;5.80;45.10
12847;DHT22;6492;48.128;8.320;2022-11-04T17:13:01;5.80;45.60
12847;DHT22;6492;48.128;8.320;2022-11-04T17:17:04;5.60;45.80
12847;DHT22;6492;48.128;8.320;2022-11-04T17:21:12;5.60;47.10
12847;DHT22;6492;48.128;8.320;2022-11-04T17:25:19;5.40;47.80
12847;DHT22;6492;48.128;8.320;2022-11-04T17:29:28;5.30;47.90
12847;DHT22;6492;48.128;8.320;2022-11-04T17:33:42;5.20;48.50
12847;DHT22;6492;48.128;8.320;2022-11-04T17:37:44;5.10;49.40
12847;DHT22;6492;48.128;8.320;2022-11-04T17:41:47;5.00;50.30
12847;DHT22;6492;48.128;8.320;2022-11-04T17:46:06;5.00;51.20
12847;DHT22;6492;48.128;8.320;2022-11-04T17:50:26;5.00;52.10
12847;DHT22;6492;48.128;8.320;2022-11-04T17:54:29;5.00;52.80
12847;DHT22;6492;48.128;8.320;2022-11-04T17:58:33;5.00;53.50
12847;DHT22;6492;48.128;8.320;2022-11-04T18:02:35;4.90;53.80
12847;DHT22;6492;48.128;8.320;2022-11-04T18:06:37;4.90;54.30
12847;DHT22;6492;48.128;8.320;2022-11-04T18:10:56;4.90;55.20
12847;DHT22;6492;48.128;8.320;2022-11-04T18:15:02;4.80;55.70
12847;DHT22;6492;48.128;8.320;2022-11-04T18:19:11;4.80;55.80
12847;DHT22;6492;48.128;8.320;2022-11-04T18:23:13;4.80;56.50
12847;DHT22;6492;48.128;8.320;2022-11-04T18:27:15;4.70;56.80
12847;DHT22;6492;48.128;8.320;2022-11-04T18:36:07;4.70;57.70
12847;DHT22;6492;48.128;8.320;2022-11-04T18:40:10;4.60;57.90
12847;DHT22;6492;48.128;8.320;2022-11-04T18:44:14;4.60;58.60
12847;DHT22;6492;48.128;8.320;2022-11-04T18:48:22;4.50;59.20
12847;DHT22;6492;48.128;8.320;2022-11-04T18:52:38;4.60;60.20
12847;DHT22;6492;48.128;8.320;2022-11-04T18:56:45;4.60;61.40
12847;DHT22;6492;48.128;8.320;2022-11-04T19:00:47;4.70;63.30
12847;DHT22;6492;48.128;8.320;2022-11-04T19:04:49;4.80;63.50
12847;DHT22;6492;48.128;8.320;2022-11-04T19:08:54;4.80;63.80
12847;DHT22;6492;48.128;8.320;2022-11-04T19:13:23;4.80;63.50
12847;DHT22;6492;48.128;8.320;2022-11-04T19:17:26;4.80;63.80
12847;DHT22;6492;48.128;8.320;2022-11-04T19:21:29;4.80;64.20
12847;DHT22;6492;48.128;8.320;2022-11-04T19:25:43;4.80;64.60
12847;DHT22;6492;48.128;8.320;2022-11-04T19:29:45;4.90;65.00
12847;DHT22;6492;48.128;8.320;2022-11-04T19:34:01;4.90;65.10
12847;DHT22;6492;48.128;8.320;2022-11-04T19:38:05;5.00;65.10
12847;DHT22;6492;48.128;8.320;2022-11-04T19:42:09;5.00;64.90
12847;DHT22;6492;48.128;8.320;2022-11-04T19:46:28;5.00;64.70
12847;DHT22;6492;48.128;8.320;2022-11-04T19:50:43;5.00;64.40
12847;DHT22;6492;48.128;8.320;2022-11-04T19:54:46;5.00;64.70
12847;DHT22;6492;48.128;8.320;2022-11-04T19:58:49;5.00;64.80
12847;DHT22;6492;48.128;8.320;2022-11-04T20:03:11;5.00;65.20
12847;DHT22;6492;48.128;8.320;2022-11-04T20:07:12;5.00;65.30
12847;DHT22;6492;48.128;8.320;2022-11-04T20:11:28;5.00;65.30
12847;DHT22;6492;48.128;8.320;2022-11-04T20:15:34;5.00;64.70
12847;DHT22;6492;48.128;8.320;2022-11-04T20:19:36;4.90;64.30
12847;DHT22;6492;48.128;8.320;2022-11-04T20:23:54;4.90;64.10
12847;DHT22;6492;48.128;8.320;2022-11-04T20:27:56;4.80;64.00
12847;DHT22;6492;48.128;8.320;2022-11-04T20:31:59;4.70;63.60
12847;DHT22;6492;48.128;8.320;2022-11-04T20:36:01;4.70;63.10
12847;DHT22;6492;48.128;8.320;2022-11-04T20:40:06;4.80;62.90
12847;DHT22;6492;48.128;8.320;2022-11-04T20:44:26;4.80;62.20
12847;DHT22;6492;48.128;8.320;2022-11-04T20:48:29;4.80;61.60
12847;DHT22;6492;48.128;8.320;2022-11-04T20:52:33;4.80;60.60
12847;DHT22;6492;48.128;8.320;2022-11-04T20:56:37;4.70;60.20
12847;DHT22;6492;48.128;8.320;2022-11-04T21:01:07;4.60;60.10
12847;DHT22;6492;48.128;8.320;2022-11-04T21:05:17;4.50;60.40
12847;DHT22;6492;48.128;8.320;2022-11-04T21:09:39;4.40;60.80
12847;DHT22;6492;48.128;8.320;2022-11-04T21:13:41;4.40;62.10
12847;DHT22;6492;48.128;8.320;2022-11-04T21:17:43;4.50;63.20
12847;DHT22;6492;48.128;8.320;2022-11-04T21:21:54;4.40;63.60
12847;DHT22;6492;48.128;8.320;2022-11-04T21:25:59;4.50;63.70
12847;DHT22;6492;48.128;8.320;2022-11-04T21:30:10;4.40;63.50
12847;DHT22;6492;48.128;8.320;2022-11-04T21:34:12;4.30;63.90
12847;DHT22;6492;48.128;8.320;2022-11-04T21:38:17;4.30;64.40
12847;DHT22;6492;48.128;8.320;2022-11-04T21:42:21;4.30;65.40
12847;DHT22;6492;48.128;8.320;2022-11-04T21:46:24;4.40;66.00
12847;DHT22;6492;48.128;8.320;2022-11-04T21:50:26;4.50;66.60
12847;DHT22;6492;48.128;8.320;2022-11-04T21:54:42;4.60;66.40
12847;DHT22;6492;48.128;8.320;2022-11-04T21:59:19;4.60;66.00
12847;DHT22;6492;48.128;8.320;2022-11-04T22:03:23;4.60;65.60
12847;DHT22;6492;48.128;8.320;2022-11-04T22:07:25;4.50;65.20
12847;DHT22;6492;48.128;8.320;2022-11-04T22:11:43;4.50;65.50
12847;DHT22;6492;48.128;8.320;2022-11-04T22:15:45;4.40;65.70
12847;DHT22;6492;48.128;8.320;2022-11-04T22:20:01;4.40;65.70
12847;DHT22;6492;48.128;8.320;2022-11-04T22:24:36;4.30;65.70
12847;DHT22;6492;48.128;8.320;2022-11-04T22:28:40;4.30;66.30
12847;DHT22;6492;48.128;8.320;2022-11-04T22:32:46;4.20;66.50
12847;DHT22;6492;48.128;8.320;2022-11-04T22:36:48;4.20;66.40
12847;DHT22;6492;48.128;8.320;2022-11-04T22:40:53;4.20;66.70
12847;DHT22;6492;48.128;8.320;2022-11-04T22:44:56;4.20;67.30
12847;DHT22;6492;48.128;8.320;2022-11-04T22:48:58;4.20;67.50
12847;DHT22;6492;48.128;8.320;2022-11-04T22:53:00;4.20;67.70
12847;DHT22;6492;48.128;8.320;2022-11-04T22:57:01;4.30;67.90
12847;DHT22;6492;48.128;8.320;2022-11-04T23:01:07;4.30;67.70
12847;DHT22;6492;48.128;8.320;2022-11-04T23:05:09;4.40;67.50
12847;DHT22;6492;48.128;8.320;2022-11-04T23:09:11;4.40;67.40
12847;DHT22;6492;48.128;8.320;2022-11-04T23:13:14;4.40;67.10
12847;DHT22;6492;48.128;8.320;2022-11-04T23:17:34;4.50;66.80
12847;DHT22;6492;48.128;8.320;2022-11-04T23:21:54;4.50;66.20
12847;DHT22;6492;48.128;8.320;2022-11-04T23:31:10;4.50;65.50
12847;DHT22;6492;48.128;8.320;2022-11-04T23:35:13;4.50;65.50
12847;DHT22;6492;48.128;8.320;2022-11-04T23:39:33;4.50;65.50
12847;DHT22;6492;48.128;8.320;2022-11-04T23:43:35;4.60;65.30
12847;DHT22;6492;48.128;8.320;2022-11-04T23:47:38;4.60;65.30
12847;DHT22;6492;48.128;8.320;2022-11-04T23:51:59;4.60;65.20
12847;DHT22;6492;48.128;8.320;2022-11-04T23:56:20;4.60;65.10
